sensor_id;sensor_type;location;lat;lon;timestamp;temperature;humidity
36924;DHT22;22841;50.252;18.688;2023-07-31T00:00:53;17.00;99.90
36924;DHT22;22841;50.252;18.688;2023-07-31T00:03:20;16.90;99.90
36924;DHT22;22841;50.252;18.688;2023-07-31T00:05:46;16.90;99.90
36924;DHT22;22841;50.252;18.688;2023-07-31T00:08:12;17.00;99.90
36924;DHT22;22841;50.252;18.688;2023-07-31T00:10:38;16.90;99.90
36924;DHT22;22841;50.252;18.688;2023-07-31T00:13:04;16.80;99.90
36924;DHT22;22841;50.252;18.688;2023-07-31T00:15:30;16.80;99.90
36924;DHT22;22841;50.252;18.688;2023-07-31T00:17:56;16.80;99.90
36924;DHT22;22841;50.252;18.688;2023-07-31T00:20:22;16.80;99.90
36924;DHT22;22841;50.252;18.688;2023-07-31T00:22:48;16.70;99.90
36924;DHT22;22841;50.252;18.688;2023-07-31T00:25:15;16.80;99.90
36924;DHT22;22841;50.252;18.688;2023-07-31T00:27:41;16.70;99.90
36924;DHT22;22841;50.252;18.688;2023-07-31T00:30:10;16.70;99.90
36924;DHT22;22841;50.252;18.688;2023-07-31T00:32:36;16.70;99.90
36924;DHT22;22841;50.252;18.688;2023-07-31T00:35:03;16.70;99.90
36924;DHT22;22841;50.252;18.688;2023-07-31T00:37:29;16.70;99.90
36924;DHT22;22841;50.252;18.688;2023-07-31T00:39:55;16.60;99.90
36924;DHT22;22841;50.252;18.688;2023-07-31T00:42:21;16.60;99.90
36924;DHT22;22841;50.252;18.688;2023-07-31T00:44:47;16.70;99.90
36924;DHT22;22841;50.252;18.688;2023-07-31T00:47:13;16.70;99.90
36924;DHT22;22841;50.252;18.688;2023-07-31T00:49:40;16.70;99.90
36924;DHT22;22841;50.252;18.688;2023-07-31T00:52:06;16.70;99.90
36924;DHT22;22841;50.252;18.688;2023-07-31T00:54:33;16.70;99.90
36924;DHT22;22841;50.252;18.688;2023-07-31T00:56:59;16.70;99.90
36924;DHT22;22841;50.252;18.688;2023-07-31T00:59:26;16.60;99.90
36924;DHT22;22841;50.252;18.688;2023-07-31T01:01:52;16.60;99.90
36924;DHT22;22841;50.252;18.688;2023-07-31T01:04:18;16.50;99.90
36924;DHT22;22841;50.252;18.688;2023-07-31T01:06:52;16.50;99.90
36924;DHT22;22841;50.252;18.688;2023-07-31T01:12:02;16.50;99.90
36924;DHT22;22841;50.252;18.688;2023-07-31T01:14:29;16.40;99.90
36924;DHT22;22841;50.252;18.688;2023-07-31T01:16:55;16.50;99.90
36924;DHT22;22841;50.252;18.688;2023-07-31T01:19:23;16.50;99.90
36924;DHT22;22841;50.252;18.688;2023-07-31T01:27:47;16.40;99.90
36924;DHT22;22841;50.252;18.688;2023-07-31T01:30:17;16.40;99.90
36924;DHT22;22841;50.252;18.688;2023-07-31T01:32:47;16.30;99.90
36924;DHT22;22841;50.252;18.688;2023-07-31T01:35:14;16.30;99.90
36924;DHT22;22841;50.252;18.688;2023-07-31T01:37:41;16.30;99.90
36924;DHT22;22841;50.252;18.688;2023-07-31T01:40:08;16.30;99.90
36924;DHT22;22841;50.252;18.688;2023-07-31T01:42:35;16.20;99.90
36924;DHT22;22841;50.252;18.688;2023-07-31T01:45:01;16.20;99.90
36924;DHT22;22841;50.252;18.688;2023-07-31T01:47:27;16.10;99.90
36924;DHT22;22841;50.252;18.688;2023-07-31T01:49:53;16.10;99.90
36924;DHT22;22841;50.252;18.688;2023-07-31T01:52:19;16.00;99.90
36924;DHT22;22841;50.252;18.688;2023-07-31T01:54:45;16.10;99.90
36924;DHT22;22841;50.252;18.688;2023-07-31T01:57:11;16.10;99.90
36924;DHT22;22841;50.252;18.688;2023-07-31T01:59:37;16.20;99.90
36924;DHT22;22841;50.252;18.688;2023-07-31T02:02:03;16.20;99.90
36924;DHT22;22841;50.252;18.688;2023-07-31T02:04:30;16.20;99.90
36924;DHT22;22841;50.252;18.688;2023-07-31T02:06:56;16.20;99.90
36924;DHT22;22841;50.252;18.688;2023-07-31T02:09:22;16.20;99.90
36924;DHT22;22841;50.252;18.688;2023-07-31T02:11:48;16.10;99.90
36924;DHT22;22841;50.252;18.688;2023-07-31T02:14:14;16.10;99.90
36924;DHT22;22841;50.252;18.688;2023-07-31T02:16:40;16.10;99.90
36924;DHT22;22841;50.252;18.688;2023-07-31T02:19:08;16.00;99.90
36924;DHT22;22841;50.252;18.688;2023-07-31T02:21:34;16.00;99.90
36924;DHT22;22841;50.252;18.688;2023-07-31T02:24:00;15.90;99.90
36924;DHT22;22841;50.252;18.688;2023-07-31T02:26:27;15.90;99.90
36924;DHT22;22841;50.252;18.688;2023-07-31T02:28:53;15.90;99.90
36924;DHT22;22841;50.252;18.688;2023-07-31T02:31:19;15.90;99.90
36924;DHT22;22841;50.252;18.688;2023-07-31T02:33:45;15.80;99.90
36924;DHT22;22841;50.252;18.688;2023-07-31T02:36:11;15.90;99.90
36924;DHT22;22841;50.252;18.688;2023-07-31T02:38:37;15.90;99.90
36924;DHT22;22841;50.252;18.688;2023-07-31T02:41:03;15.80;99.90
36924;DHT22;22841;50.252;18.688;2023-07-31T02:43:29;15.80;99.90
36924;DHT22;22841;50.252;18.688;2023-07-31T02:45:55;15.80;99.90
36924;DHT22;22841;50.252;18.688;2023-07-31T02:48:21;15.80;99.90
36924;DHT22;22841;50.252;18.688;2023-07-31T02:50:48;15.80;99.90
36924;DHT22;22841;50.252;18.688;2023-07-31T02:53:14;15.80;99.90
36924;DHT22;22841;50.252;18.688;2023-07-31T02:55:41;15.70;99.90
36924;DHT22;22841;50.252;18.688;2023-07-31T02:58:07;15.70;99.90
36924;DHT22;22841;50.252;18.688;2023-07-31T03:00:33;15.80;99.90
36924;DHT22;22841;50.252;18.688;2023-07-31T03:02:59;15.70;99.90
36924;DHT22;22841;50.252;18.688;2023-07-31T03:05:25;15.80;99.90
36924;DHT22;22841;50.252;18.688;2023-07-31T03:07:51;15.80;99.90
36924;DHT22;22841;50.252;18.688;2023-07-31T03:10:17;15.90;99.90
36924;DHT22;22841;50.252;18.688;2023-07-31T03:12:47;15.80;99.90
36924;DHT22;22841;50.252;18.688;2023-07-31T03:15:14;15.90;99.90
36924;DHT22;22841;50.252;18.688;2023-07-31T03:17:40;15.80;99.90
36924;DHT22;22841;50.252;18.688;2023-07-31T03:20:06;15.80;99.90
36924;DHT22;22841;50.252;18.688;2023-07-31T03:22:34;15.80;99.90
36924;DHT22;22841;50.252;18.688;2023-07-31T03:25:02;15.80;99.90
36924;DHT22;22841;50.252;18.688;2023-07-31T03:27:28;15.90;99.90
36924;DHT22;22841;50.252;18.688;2023-07-31T03:29:54;15.90;99.90
36924;DHT22;22841;50.252;18.688;2023-07-31T03:32:20;15.90;99.90
36924;DHT22;22841;50.252;18.688;2023-07-31T03:34:47;15.80;99.90
36924;DHT22;22841;50.252;18.688;2023-07-31T03:37:13;15.80;99.90
36924;DHT22;22841;50.252;18.688;2023-07-31T03:39:39;15.90;99.90
36924;DHT22;22841;50.252;18.688;2023-07-31T03:42:05;15.90;99.90
36924;DHT22;22841;50.252;18.688;2023-07-31T03:44:32;15.90;99.90
36924;DHT22;22841;50.252;18.688;2023-07-31T03:46:58;16.00;99.90
36924;DHT22;22841;50.252;18.688;2023-07-31T03:49:24;15.90;99.90
36924;DHT22;22841;50.252;18.688;2023-07-31T03:51:50;16.00;99.90
36924;DHT22;22841;50.252;18.688;2023-07-31T03:54:16;16.00;99.90
36924;DHT22;22841;50.252;18.688;2023-07-31T03:56:42;16.00;99.90
36924;DHT22;22841;50.252;18.688;2023-07-31T03:59:08;16.10;99.90
36924;DHT22;22841;50.252;18.688;2023-07-31T04:01:34;16.10;99.90
36924;DHT22;22841;50.252;18.688;2023-07-31T04:04:00;16.10;99.90
36924;DHT22;22841;50.252;18.688;2023-07-31T04:06:27;16.10;99.90
36924;DHT22;22841;50.252;18.688;2023-07-31T04:08:53;16.10;99.90
36924;DHT22;22841;50.252;18.688;2023-07-31T04:11:19;16.10;99.90
36924;DHT22;22841;50.252;18.688;2023-07-31T04:13:45;16.10;99.90
36924;DHT22;22841;50.252;18.688;2023-07-31T04:16:11;16.10;99.90
36924;DHT22;22841;50.252;18.688;2023-07-31T04:18:38;16.10;99.90
36924;DHT22;22841;50.252;18.688;2023-07-31T04:21:04;16.10;99.90
36924;DHT22;22841;50.252;18.688;2023-07-31T04:23:30;16.20;99.90
36924;DHT22;22841;50.252;18.688;2023-07-31T04:25:56;16.20;99.90
36924;DHT22;22841;50.252;18.688;2023-07-31T04:28:22;16.10;99.90
36924;DHT22;22841;50.252;18.688;2023-07-31T04:30:48;16.10;99.90
36924;DHT22;22841;50.252;18.688;2023-07-31T04:33:14;16.10;99.90
36924;DHT22;22841;50.252;18.688;2023-07-31T04:35:41;16.10;99.90
36924;DHT22;22841;50.252;18.688;2023-07-31T04:38:07;16.10;99.90
36924;DHT22;22841;50.252;18.688;2023-07-31T04:40:33;16.20;99.90
36924;DHT22;22841;50.252;18.688;2023-07-31T04:42:59;16.20;99.90
36924;DHT22;22841;50.252;18.688;2023-07-31T04:45:25;16.20;99.90
36924;DHT22;22841;50.252;18.688;2023-07-31T04:47:51;16.20;99.90
36924;DHT22;22841;50.252;18.688;2023-07-31T04:50:17;16.20;99.90
36924;DHT22;22841;50.252;18.688;2023-07-31T04:52:43;16.20;99.90
36924;DHT22;22841;50.252;18.688;2023-07-31T04:55:10;16.20;99.90
36924;DHT22;22841;50.252;18.688;2023-07-31T04:57:36;16.20;99.90
36924;DHT22;22841;50.252;18.688;2023-07-31T05:00:02;16.20;99.90
36924;DHT22;22841;50.252;18.688;2023-07-31T05:02:28;16.30;99.90
36924;DHT22;22841;50.252;18.688;2023-07-31T05:04:54;16.30;99.90
36924;DHT22;22841;50.252;18.688;2023-07-31T05:07:20;16.40;99.90
36924;DHT22;22841;50.252;18.688;2023-07-31T05:09:47;16.40;99.90
36924;DHT22;22841;50.252;18.688;2023-07-31T05:12:13;16.40;99.90
36924;DHT22;22841;50.252;18.688;2023-07-31T05:14:39;16.40;99.90
36924;DHT22;22841;50.252;18.688;2023-07-31T05:17:05;16.40;99.90
36924;DHT22;22841;50.252;18.688;2023-07-31T05:19:31;16.40;99.90
36924;DHT22;22841;50.252;18.688;2023-07-31T05:21:57;16.50;99.90
36924;DHT22;22841;50.252;18.688;2023-07-31T05:24:24;16.50;99.90
36924;DHT22;22841;50.252;18.688;2023-07-31T05:26:50;16.50;99.90
36924;DHT22;22841;50.252;18.688;2023-07-31T05:29:16;16.50;99.90
36924;DHT22;22841;50.252;18.688;2023-07-31T05:31:42;16.60;99.90
36924;DHT22;22841;50.252;18.688;2023-07-31T05:34:08;16.60;99.90
36924;DHT22;22841;50.252;18.688;2023-07-31T05:36:34;16.60;99.90
36924;DHT22;22841;50.252;18.688;2023-07-31T05:39:01;16.70;99.90
36924;DHT22;22841;50.252;18.688;2023-07-31T05:41:32;16.70;99.90
36924;DHT22;22841;50.252;18.688;2023-07-31T05:43:58;16.70;99.90
36924;DHT22;22841;50.252;18.688;2023-07-31T05:46:24;16.80;99.90
36924;DHT22;22841;50.252;18.688;2023-07-31T05:48:50;16.80;99.90
36924;DHT22;22841;50.252;18.688;2023-07-31T05:51:16;16.80;99.90
36924;DHT22;22841;50.252;18.688;2023-07-31T05:53:42;16.90;99.90
36924;DHT22;22841;50.252;18.688;2023-07-31T05:56:09;17.00;99.90
36924;DHT22;22841;50.252;18.688;2023-07-31T05:58:35;17.00;99.90
36924;DHT22;22841;50.252;18.688;2023-07-31T06:01:01;17.10;99.90
36924;DHT22;22841;50.252;18.688;2023-07-31T06:03:27;17.20;99.90
36924;DHT22;22841;50.252;18.688;2023-07-31T06:05:54;17.20;99.90
36924;DHT22;22841;50.252;18.688;2023-07-31T06:08:20;17.30;99.90
36924;DHT22;22841;50.252;18.688;2023-07-31T06:10:46;17.40;99.90
36924;DHT22;22841;50.252;18.688;2023-07-31T06:13:12;17.40;99.90
36924;DHT22;22841;50.252;18.688;2023-07-31T06:15:39;17.40;99.90
36924;DHT22;22841;50.252;18.688;2023-07-31T06:18:05;17.40;99.90
36924;DHT22;22841;50.252;18.688;2023-07-31T06:20:34;17.40;99.90
36924;DHT22;22841;50.252;18.688;2023-07-31T06:23:00;17.50;99.90
36924;DHT22;22841;50.252;18.688;2023-07-31T06:25:26;17.50;99.90
36924;DHT22;22841;50.252;18.688;2023-07-31T06:27:53;17.50;99.90
36924;DHT22;22841;50.252;18.688;2023-07-31T06:30:19;17.50;99.90
36924;DHT22;22841;50.252;18.688;2023-07-31T06:32:45;17.60;99.90
36924;DHT22;22841;50.252;18.688;2023-07-31T06:35:11;17.70;99.90
36924;DHT22;22841;50.252;18.688;2023-07-31T06:37:37;17.70;99.90
36924;DHT22;22841;50.252;18.688;2023-07-31T06:40:06;17.80;99.90
36924;DHT22;22841;50.252;18.688;2023-07-31T06:42:35;17.80;99.90
36924;DHT22;22841;50.252;18.688;2023-07-31T06:45:02;17.90;17.40
36924;DHT22;22841;50.252;18.688;2023-07-31T06:47:28;17.90;99.90
36924;DHT22;22841;50.252;18.688;2023-07-31T06:49:55;18.00;99.90
36924;DHT22;22841;50.252;18.688;2023-07-31T06:52:21;18.00;1.00
36924;DHT22;22841;50.252;18.688;2023-07-31T06:55:01;18.10;1.00
36924;DHT22;22841;50.252;18.688;2023-07-31T06:57:28;18.20;1.00
36924;DHT22;22841;50.252;18.688;2023-07-31T06:59:54;18.20;99.90
36924;DHT22;22841;50.252;18.688;2023-07-31T07:02:20;18.20;99.90
36924;DHT22;22841;50.252;18.688;2023-07-31T07:04:46;18.20;34.60
36924;DHT22;22841;50.252;18.688;2023-07-31T07:07:13;18.30;16.50
36924;DHT22;22841;50.252;18.688;2023-07-31T07:09:39;18.40;2.20
36924;DHT22;22841;50.252;18.688;2023-07-31T07:12:06;18.50;99.90
36924;DHT22;22841;50.252;18.688;2023-07-31T07:14:32;18.50;99.90
36924;DHT22;22841;50.252;18.688;2023-07-31T07:16:58;18.50;12.70
36924;DHT22;22841;50.252;18.688;2023-07-31T07:19:24;18.70;9.90
36924;DHT22;22841;50.252;18.688;2023-07-31T07:21:50;18.80;1.00
36924;DHT22;22841;50.252;18.688;2023-07-31T07:24:16;18.80;99.90
36924;DHT22;22841;50.252;18.688;2023-07-31T07:26:43;18.80;99.90
36924;DHT22;22841;50.252;18.688;2023-07-31T07:29:09;18.80;1.00
36924;DHT22;22841;50.252;18.688;2023-07-31T07:31:36;18.80;1.00
36924;DHT22;22841;50.252;18.688;2023-07-31T07:34:02;18.70;1.00
36924;DHT22;22841;50.252;18.688;2023-07-31T07:36:28;18.80;91.60
36924;DHT22;22841;50.252;18.688;2023-07-31T07:38:55;18.80;99.90
36924;DHT22;22841;50.252;18.688;2023-07-31T07:41:21;18.80;99.90
36924;DHT22;22841;50.252;18.688;2023-07-31T07:43:47;18.90;99.90
36924;DHT22;22841;50.252;18.688;2023-07-31T07:46:13;19.00;99.90
36924;DHT22;22841;50.252;18.688;2023-07-31T07:48:39;19.00;99.90
36924;DHT22;22841;50.252;18.688;2023-07-31T07:51:05;19.00;99.90
36924;DHT22;22841;50.252;18.688;2023-07-31T07:53:31;19.10;99.90
36924;DHT22;22841;50.252;18.688;2023-07-31T07:55:57;19.10;99.90
36924;DHT22;22841;50.252;18.688;2023-07-31T07:58:23;19.10;1.00
36924;DHT22;22841;50.252;18.688;2023-07-31T08:00:53;19.20;99.90
36924;DHT22;22841;50.252;18.688;2023-07-31T08:03:19;19.20;99.90
36924;DHT22;22841;50.252;18.688;2023-07-31T08:05:45;19.20;1.60
36924;DHT22;22841;50.252;18.688;2023-07-31T08:08:15;19.40;99.90
36924;DHT22;22841;50.252;18.688;2023-07-31T08:10:44;19.50;99.90
36924;DHT22;22841;50.252;18.688;2023-07-31T08:13:11;19.60;99.90
36924;DHT22;22841;50.252;18.688;2023-07-31T08:15:37;19.60;99.90
36924;DHT22;22841;50.252;18.688;2023-07-31T08:18:03;19.70;99.90
36924;DHT22;22841;50.252;18.688;2023-07-31T08:20:30;19.90;99.90
36924;DHT22;22841;50.252;18.688;2023-07-31T08:22:56;20.00;99.90
36924;DHT22;22841;50.252;18.688;2023-07-31T08:25:23;20.20;1.00
36924;DHT22;22841;50.252;18.688;2023-07-31T08:27:49;20.20;87.30
36924;DHT22;22841;50.252;18.688;2023-07-31T08:30:19;20.30;1.00
36924;DHT22;22841;50.252;18.688;2023-07-31T08:32:45;20.30;1.00
36924;DHT22;22841;50.252;18.688;2023-07-31T08:35:11;20.40;75.20
36924;DHT22;22841;50.252;18.688;2023-07-31T08:37:38;20.40;45.80
36924;DHT22;22841;50.252;18.688;2023-07-31T08:40:05;20.30;99.90
36924;DHT22;22841;50.252;18.688;2023-07-31T08:42:32;20.30;11.90
36924;DHT22;22841;50.252;18.688;2023-07-31T08:44:59;20.50;99.90
36924;DHT22;22841;50.252;18.688;2023-07-31T08:47:27;20.70;1.00
36924;DHT22;22841;50.252;18.688;2023-07-31T08:49:54;20.60;1.00
36924;DHT22;22841;50.252;18.688;2023-07-31T08:52:21;20.60;1.00
36924;DHT22;22841;50.252;18.688;2023-07-31T08:54:47;20.70;1.00
36924;DHT22;22841;50.252;18.688;2023-07-31T08:57:14;20.70;99.90
36924;DHT22;22841;50.252;18.688;2023-07-31T08:59:40;21.00;99.90
36924;DHT22;22841;50.252;18.688;2023-07-31T09:02:08;21.10;99.90
36924;DHT22;22841;50.252;18.688;2023-07-31T09:04:35;21.30;99.90
36924;DHT22;22841;50.252;18.688;2023-07-31T09:07:03;21.50;99.90
36924;DHT22;22841;50.252;18.688;2023-07-31T09:09:33;21.40;99.90
36924;DHT22;22841;50.252;18.688;2023-07-31T09:11:59;21.20;99.90
36924;DHT22;22841;50.252;18.688;2023-07-31T09:14:26;21.10;99.90
36924;DHT22;22841;50.252;18.688;2023-07-31T09:16:56;21.20;99.90
36924;DHT22;22841;50.252;18.688;2023-07-31T09:19:34;21.30;99.90
36924;DHT22;22841;50.252;18.688;2023-07-31T09:22:03;21.60;99.90
36924;DHT22;22841;50.252;18.688;2023-07-31T09:24:32;21.70;99.90
36924;DHT22;22841;50.252;18.688;2023-07-31T09:27:00;21.80;99.90
36924;DHT22;22841;50.252;18.688;2023-07-31T09:29:28;21.90;97.70
36924;DHT22;22841;50.252;18.688;2023-07-31T09:32:18;22.00;99.90
36924;DHT22;22841;50.252;18.688;2023-07-31T09:35:22;21.90;86.00
36924;DHT22;22841;50.252;18.688;2023-07-31T09:38:14;22.00;90.20
36924;DHT22;22841;50.252;18.688;2023-07-31T09:40:48;22.00;64.00
36924;DHT22;22841;50.252;18.688;2023-07-31T09:43:21;22.00;67.60
36924;DHT22;22841;50.252;18.688;2023-07-31T09:45:47;21.70;45.20
36924;DHT22;22841;50.252;18.688;2023-07-31T09:48:16;21.50;44.10
36924;DHT22;22841;50.252;18.688;2023-07-31T09:50:46;21.40;79.20
36924;DHT22;22841;50.252;18.688;2023-07-31T09:53:13;21.50;90.00
36924;DHT22;22841;50.252;18.688;2023-07-31T09:55:40;21.80;88.30
36924;DHT22;22841;50.252;18.688;2023-07-31T09:58:11;22.00;60.30
36924;DHT22;22841;50.252;18.688;2023-07-31T10:00:38;22.10;32.00
36924;DHT22;22841;50.252;18.688;2023-07-31T10:03:06;22.10;27.70
36924;DHT22;22841;50.252;18.688;2023-07-31T10:05:40;21.90;27.80
36924;DHT22;22841;50.252;18.688;2023-07-31T10:08:10;21.90;23.50
36924;DHT22;22841;50.252;18.688;2023-07-31T10:11:05;21.80;11.00
36924;DHT22;22841;50.252;18.688;2023-07-31T10:13:32;21.80;18.80
36924;DHT22;22841;50.252;18.688;2023-07-31T10:16:00;21.90;14.70
36924;DHT22;22841;50.252;18.688;2023-07-31T10:18:27;21.80;1.00
36924;DHT22;22841;50.252;18.688;2023-07-31T10:20:54;21.70;1.00
36924;DHT22;22841;50.252;18.688;2023-07-31T10:23:22;21.50;1.00
36924;DHT22;22841;50.252;18.688;2023-07-31T10:25:50;21.40;2.00
36924;DHT22;22841;50.252;18.688;2023-07-31T10:28:45;21.50;3.00
36924;DHT22;22841;50.252;18.688;2023-07-31T10:31:12;21.80;23.30
36924;DHT22;22841;50.252;18.688;2023-07-31T10:33:38;21.80;2.60
36924;DHT22;22841;50.252;18.688;2023-07-31T10:36:19;21.80;4.30
36924;DHT22;22841;50.252;18.688;2023-07-31T10:38:48;21.70;7.20
36924;DHT22;22841;50.252;18.688;2023-07-31T10:41:14;21.60;10.10
36924;DHT22;22841;50.252;18.688;2023-07-31T10:43:41;21.70;11.30
36924;DHT22;22841;50.252;18.688;2023-07-31T10:46:13;21.80;16.60
36924;DHT22;22841;50.252;18.688;2023-07-31T10:48:41;21.80;2.70
36924;DHT22;22841;50.252;18.688;2023-07-31T10:51:11;21.90;2.80
36924;DHT22;22841;50.252;18.688;2023-07-31T10:53:39;22.00;1.00
36924;DHT22;22841;50.252;18.688;2023-07-31T10:56:10;22.10;1.00
36924;DHT22;22841;50.252;18.688;2023-07-31T10:58:44;22.10;8.70
36924;DHT22;22841;50.252;18.688;2023-07-31T11:01:10;22.10;6.20
36924;DHT22;22841;50.252;18.688;2023-07-31T11:03:48;22.10;16.10
36924;DHT22;22841;50.252;18.688;2023-07-31T11:06:16;22.10;1.00
36924;DHT22;22841;50.252;18.688;2023-07-31T11:08:51;22.10;1.00
36924;DHT22;22841;50.252;18.688;2023-07-31T11:11:19;22.20;1.00
36924;DHT22;22841;50.252;18.688;2023-07-31T11:13:50;22.20;1.00
36924;DHT22;22841;50.252;18.688;2023-07-31T11:16:20;22.20;1.00
36924;DHT22;22841;50.252;18.688;2023-07-31T11:18:47;22.30;1.00
36924;DHT22;22841;50.252;18.688;2023-07-31T11:21:15;22.20;1.00
36924;DHT22;22841;50.252;18.688;2023-07-31T11:23:46;22.20;1.00
36924;DHT22;22841;50.252;18.688;2023-07-31T11:26:13;22.20;1.00
36924;DHT22;22841;50.252;18.688;2023-07-31T11:28:39;22.10;1.00
36924;DHT22;22841;50.252;18.688;2023-07-31T11:31:11;22.10;1.00
36924;DHT22;22841;50.252;18.688;2023-07-31T11:33:37;22.00;1.00
36924;DHT22;22841;50.252;18.688;2023-07-31T11:36:04;21.90;1.00
36924;DHT22;22841;50.252;18.688;2023-07-31T11:38:31;21.90;1.00
36924;DHT22;22841;50.252;18.688;2023-07-31T11:41:02;21.90;1.00
36924;DHT22;22841;50.252;18.688;2023-07-31T11:43:30;21.90;1.00
36924;DHT22;22841;50.252;18.688;2023-07-31T11:45:58;22.00;1.00
36924;DHT22;22841;50.252;18.688;2023-07-31T11:48:30;22.10;1.00
36924;DHT22;22841;50.252;18.688;2023-07-31T11:51:10;22.10;1.00
36924;DHT22;22841;50.252;18.688;2023-07-31T11:53:57;22.10;3.20
36924;DHT22;22841;50.252;18.688;2023-07-31T11:56:25;22.20;1.00
36924;DHT22;22841;50.252;18.688;2023-07-31T11:58:59;22.10;1.00
36924;DHT22;22841;50.252;18.688;2023-07-31T12:01:26;22.10;4.10
36924;DHT22;22841;50.252;18.688;2023-07-31T12:03:56;22.00;8.50
36924;DHT22;22841;50.252;18.688;2023-07-31T12:06:35;22.00;1.00
36924;DHT22;22841;50.252;18.688;2023-07-31T12:09:05;22.00;1.00
36924;DHT22;22841;50.252;18.688;2023-07-31T12:11:42;22.10;1.00
36924;DHT22;22841;50.252;18.688;2023-07-31T12:14:08;22.20;1.00
36924;DHT22;22841;50.252;18.688;2023-07-31T12:16:35;22.30;1.00
36924;DHT22;22841;50.252;18.688;2023-07-31T12:19:02;22.40;1.00
36924;DHT22;22841;50.252;18.688;2023-07-31T12:21:28;22.50;1.00
36924;DHT22;22841;50.252;18.688;2023-07-31T12:23:55;22.60;1.00
36924;DHT22;22841;50.252;18.688;2023-07-31T12:26:21;22.80;1.00
36924;DHT22;22841;50.252;18.688;2023-07-31T12:28:50;22.90;1.00
36924;DHT22;22841;50.252;18.688;2023-07-31T12:31:18;23.00;1.00
36924;DHT22;22841;50.252;18.688;2023-07-31T12:33:46;23.20;1.00
36924;DHT22;22841;50.252;18.688;2023-07-31T12:36:14;23.20;1.00
36924;DHT22;22841;50.252;18.688;2023-07-31T12:38:41;23.20;1.00
36924;DHT22;22841;50.252;18.688;2023-07-31T12:41:08;23.20;1.00
36924;DHT22;22841;50.252;18.688;2023-07-31T12:43:36;23.20;1.00
36924;DHT22;22841;50.252;18.688;2023-07-31T12:46:03;23.10;1.00
36924;DHT22;22841;50.252;18.688;2023-07-31T12:48:29;23.00;1.00
36924;DHT22;22841;50.252;18.688;2023-07-31T12:50:55;23.00;1.00
36924;DHT22;22841;50.252;18.688;2023-07-31T12:53:21;23.20;1.00
36924;DHT22;22841;50.252;18.688;2023-07-31T12:55:48;23.60;1.00
36924;DHT22;22841;50.252;18.688;2023-07-31T12:58:14;23.60;1.00
36924;DHT22;22841;50.252;18.688;2023-07-31T13:00:40;23.90;1.00
36924;DHT22;22841;50.252;18.688;2023-07-31T13:03:06;23.90;1.00
36924;DHT22;22841;50.252;18.688;2023-07-31T13:05:32;23.70;1.00
36924;DHT22;22841;50.252;18.688;2023-07-31T13:07:58;23.60;1.00
36924;DHT22;22841;50.252;18.688;2023-07-31T13:10:24;23.30;1.00
36924;DHT22;22841;50.252;18.688;2023-07-31T13:12:52;23.10;1.00
36924;DHT22;22841;50.252;18.688;2023-07-31T13:15:18;22.90;1.00
36924;DHT22;22841;50.252;18.688;2023-07-31T13:17:46;22.90;1.00
36924;DHT22;22841;50.252;18.688;2023-07-31T13:20:12;22.90;1.00
36924;DHT22;22841;50.252;18.688;2023-07-31T13:22:38;22.90;1.00
36924;DHT22;22841;50.252;18.688;2023-07-31T13:25:05;23.00;1.00
36924;DHT22;22841;50.252;18.688;2023-07-31T13:27:32;23.20;1.00
36924;DHT22;22841;50.252;18.688;2023-07-31T13:29:58;23.30;1.00
36924;DHT22;22841;50.252;18.688;2023-07-31T13:32:24;23.50;1.00
36924;DHT22;22841;50.252;18.688;2023-07-31T13:34:51;23.60;1.00
36924;DHT22;22841;50.252;18.688;2023-07-31T13:37:17;23.60;1.00
36924;DHT22;22841;50.252;18.688;2023-07-31T13:39:43;23.40;1.00
36924;DHT22;22841;50.252;18.688;2023-07-31T13:42:09;23.20;1.00
36924;DHT22;22841;50.252;18.688;2023-07-31T13:44:46;23.00;1.00
36924;DHT22;22841;50.252;18.688;2023-07-31T13:47:12;22.90;1.00
36924;DHT22;22841;50.252;18.688;2023-07-31T13:49:39;22.90;1.00
36924;DHT22;22841;50.252;18.688;2023-07-31T13:52:05;22.80;1.00
36924;DHT22;22841;50.252;18.688;2023-07-31T13:54:31;22.60;1.00
36924;DHT22;22841;50.252;18.688;2023-07-31T13:56:57;22.50;1.00
36924;DHT22;22841;50.252;18.688;2023-07-31T13:59:24;22.40;1.00
36924;DHT22;22841;50.252;18.688;2023-07-31T14:01:50;22.30;1.00
36924;DHT22;22841;50.252;18.688;2023-07-31T14:04:16;22.20;1.00
36924;DHT22;22841;50.252;18.688;2023-07-31T14:06:43;22.20;1.00
36924;DHT22;22841;50.252;18.688;2023-07-31T14:09:10;22.10;1.00
36924;DHT22;22841;50.252;18.688;2023-07-31T14:11:36;22.10;1.00
36924;DHT22;22841;50.252;18.688;2023-07-31T14:14:03;22.10;1.00
36924;DHT22;22841;50.252;18.688;2023-07-31T14:16:29;22.10;1.00
36924;DHT22;22841;50.252;18.688;2023-07-31T14:18:55;22.20;1.00
36924;DHT22;22841;50.252;18.688;2023-07-31T14:21:21;22.20;1.00
36924;DHT22;22841;50.252;18.688;2023-07-31T14:23:48;22.20;1.00
36924;DHT22;22841;50.252;18.688;2023-07-31T14:26:14;22.30;1.00
36924;DHT22;22841;50.252;18.688;2023-07-31T14:28:40;22.30;1.00
36924;DHT22;22841;50.252;18.688;2023-07-31T14:31:06;22.30;1.00
36924;DHT22;22841;50.252;18.688;2023-07-31T14:33:32;22.30;1.00
36924;DHT22;22841;50.252;18.688;2023-07-31T14:35:59;22.40;1.00
36924;DHT22;22841;50.252;18.688;2023-07-31T14:38:25;22.50;1.00
36924;DHT22;22841;50.252;18.688;2023-07-31T14:40:51;22.70;1.00
36924;DHT22;22841;50.252;18.688;2023-07-31T14:43:17;22.80;1.00
36924;DHT22;22841;50.252;18.688;2023-07-31T14:45:44;22.90;1.00
36924;DHT22;22841;50.252;18.688;2023-07-31T14:48:12;22.90;1.00
36924;DHT22;22841;50.252;18.688;2023-07-31T14:50:39;22.90;1.00
36924;DHT22;22841;50.252;18.688;2023-07-31T14:53:05;22.90;1.00
36924;DHT22;22841;50.252;18.688;2023-07-31T14:55:31;22.80;1.00
36924;DHT22;22841;50.252;18.688;2023-07-31T14:57:57;22.70;1.00
36924;DHT22;22841;50.252;18.688;2023-07-31T15:00:23;22.70;1.00
36924;DHT22;22841;50.252;18.688;2023-07-31T15:02:50;22.80;1.00
36924;DHT22;22841;50.252;18.688;2023-07-31T15:05:16;23.00;1.00
36924;DHT22;22841;50.252;18.688;2023-07-31T15:07:42;23.20;1.00
36924;DHT22;22841;50.252;18.688;2023-07-31T15:10:09;23.30;1.00
36924;DHT22;22841;50.252;18.688;2023-07-31T15:12:35;23.50;1.00
36924;DHT22;22841;50.252;18.688;2023-07-31T15:15:04;23.60;1.00
36924;DHT22;22841;50.252;18.688;2023-07-31T15:17:30;23.70;1.00
36924;DHT22;22841;50.252;18.688;2023-07-31T15:19:56;23.70;1.00
36924;DHT22;22841;50.252;18.688;2023-07-31T15:22:22;23.70;1.00
36924;DHT22;22841;50.252;18.688;2023-07-31T15:24:49;23.70;1.00
36924;DHT22;22841;50.252;18.688;2023-07-31T15:27:15;23.80;1.00
36924;DHT22;22841;50.252;18.688;2023-07-31T15:29:41;23.70;1.00
36924;DHT22;22841;50.252;18.688;2023-07-31T15:32:08;23.70;1.00